Time;durP1;ratioP1;P1;durP2;ratioP2;P2;SDS_P1;SDS_P2;PMS_P1;PMS_P2;Temp;Humidity;BMP_temperature;BMP_pressure;BME280_temperature;BME280_humidity;BME280_pressure;Samples;Min_cycle;Max_cycle;Signal;HPM_P1;HPM_P2
2023/07/19 00:02:23;;;;;;;8.27;3.60;;;;;;;;;;5002359;28;20508;-72
2023/07/19 00:04:48;;;;;;;7.25;3.22;;;;;;;;;;4999447;28;20061;-70
2023/07/19 00:07:14;;;;;;;5.05;3.33;;;;;;;;;;5000404;28;20685;-71
2023/07/19 00:09:39;;;;;;;6.20;3.22;;;;;;;;;;5004457;28;20049;-71
2023/07/19 00:12:06;;;;;;;6.63;3.47;;;;;;;;;;5000292;28;20061;-70
2023/07/19 00:14:31;;;;;;;5.38;3.00;;;;;;;;;;4999178;28;20455;-71
2023/07/19 00:16:57;;;;;;;10.65;3.50;;;;;;;;;;4999612;28;20678;-71
2023/07/19 00:19:22;;;;;;;8.05;3.45;;;;;;;;;;4999391;28;20046;-71
2023/07/19 00:21:48;;;;;;;7.20;3.25;;;;;;;;;;5000355;28;20041;-71
2023/07/19 00:24:13;;;;;;;7.13;3.30;;;;;;;;;;5002322;28;20503;-71
2023/07/19 00:26:39;;;;;;;9.75;2.80;;;;;;;;;;5005682;28;20050;-71
2023/07/19 00:29:04;;;;;;;4.32;2.80;;;;;;;;;;4998926;28;20056;-70
2023/07/19 00:31:30;;;;;;;4.38;3.53;;;;;;;;;;4999245;28;20049;-70
2023/07/19 00:33:55;;;;;;;7.78;3.10;;;;;;;;;;4998598;28;20053;-70
2023/07/19 00:36:21;;;;;;;4.55;2.67;;;;;;;;;;4998415;28;20149;-70
2023/07/19 00:38:46;;;;;;;8.00;3.10;;;;;;;;;;4998094;28;20050;-70
2023/07/19 00:41:12;;;;;;;7.90;3.20;;;;;;;;;;4999530;28;20145;-70
2023/07/19 00:43:38;;;;;;;9.13;2.92;;;;;;;;;;5004692;28;20069;-72
2023/07/19 00:46:03;;;;;;;6.53;2.90;;;;;;;;;;4998370;28;20442;-70
2023/07/19 00:48:28;;;;;;;4.75;3.08;;;;;;;;;;4998639;28;20447;-70
2023/07/19 00:50:55;;;;;;;4.07;2.67;;;;;;;;;;4997876;28;20986;-70
2023/07/19 00:53:24;;;;;;;3.80;2.83;;;;;;;;;;5004735;28;20046;-70
2023/07/19 00:55:50;;;;;;;5.63;2.78;;;;;;;;;;4999979;28;20056;-70
2023/07/19 00:58:17;;;;;;;6.65;3.13;;;;;;;;;;4998370;28;20045;-70
2023/07/19 01:00:42;;;;;;;5.82;3.22;;;;;;;;;;4998144;28;20486;-71
2023/07/19 01:03:08;;;;;;;9.02;2.65;;;;;;;;;;5002110;28;20050;-70
2023/07/19 01:05:34;;;;;;;4.57;3.00;;;;;;;;;;4999011;28;20058;-70
2023/07/19 01:08:00;;;;;;;7.65;3.05;;;;;;;;;;5007603;28;20682;-71
2023/07/19 01:10:26;;;;;;;4.82;3.42;;;;;;;;;;5003311;28;20498;-70
2023/07/19 01:13:08;;;;;;;7.65;2.92;;;;;;;;;;5003120;28;20466;-70
2023/07/19 01:15:35;;;;;;;3.42;2.60;;;;;;;;;;5002718;28;20858;-70
2023/07/19 01:18:02;;;;;;;6.80;3.42;;;;;;;;;;5001720;28;20073;-70
2023/07/19 01:20:28;;;;;;;5.78;3.33;;;;;;;;;;5007997;28;20084;-70
2023/07/19 01:22:57;;;;;;;11.05;3.15;;;;;;;;;;4987532;28;20085;-71
2023/07/19 01:25:23;;;;;;;6.40;3.17;;;;;;;;;;5001915;28;20052;-71
2023/07/19 01:27:50;;;;;;;4.78;2.90;;;;;;;;;;5009623;28;20057;-71
2023/07/19 01:30:16;;;;;;;6.78;3.25;;;;;;;;;;5001846;28;20133;-71
2023/07/19 01:32:44;;;;;;;7.07;2.83;;;;;;;;;;5002435;28;20041;-72
2023/07/19 01:35:11;;;;;;;7.57;2.50;;;;;;;;;;5003330;28;20046;-72
2023/07/19 01:37:36;;;;;;;5.90;2.80;;;;;;;;;;5004985;28;20988;-72
2023/07/19 01:40:03;;;;;;;5.63;3.05;;;;;;;;;;5004938;28;20124;-72
2023/07/19 01:42:31;;;;;;;11.75;3.47;;;;;;;;;;5009911;28;20058;-72
2023/07/19 01:45:00;;;;;;;6.20;3.40;;;;;;;;;;5002353;28;20053;-72
2023/07/19 01:47:26;;;;;;;5.72;3.33;;;;;;;;;;5013332;28;20082;-70
2023/07/19 01:49:52;;;;;;;7.22;3.15;;;;;;;;;;5001125;28;20060;-70
2023/07/19 01:52:17;;;;;;;6.82;3.70;;;;;;;;;;5002810;28;20041;-73
2023/07/19 01:54:43;;;;;;;5.60;3.30;;;;;;;;;;4998446;28;20049;-73
2023/07/19 01:57:09;;;;;;;11.70;3.50;;;;;;;;;;5000848;28;20060;-71
2023/07/19 01:59:35;;;;;;;8.05;3.38;;;;;;;;;;5000795;28;20054;-73
2023/07/19 02:02:00;;;;;;;8.50;3.78;;;;;;;;;;5000480;28;20049;-72
2023/07/19 02:04:26;;;;;;;4.38;3.22;;;;;;;;;;5001151;28;20040;-70
2023/07/19 02:06:52;;;;;;;6.85;3.17;;;;;;;;;;5002021;28;20205;-71
2023/07/19 02:09:18;;;;;;;8.07;3.25;;;;;;;;;;5000096;28;20111;-72
2023/07/19 02:11:44;;;;;;;5.57;3.42;;;;;;;;;;5000675;28;20499;-71
2023/07/19 02:14:09;;;;;;;4.53;3.30;;;;;;;;;;5000051;28;20588;-71
2023/07/19 02:16:36;;;;;;;6.13;3.10;;;;;;;;;;5005797;28;20482;-71
2023/07/19 02:19:03;;;;;;;8.02;3.38;;;;;;;;;;5002217;28;20045;-71
2023/07/19 02:21:29;;;;;;;7.13;3.33;;;;;;;;;;5002968;28;20586;-71
2023/07/19 02:23:54;;;;;;;7.18;3.63;;;;;;;;;;5000616;28;20216;-72
2023/07/19 02:26:20;;;;;;;7.38;3.53;;;;;;;;;;5002059;28;20046;-72
2023/07/19 02:28:46;;;;;;;6.18;3.67;;;;;;;;;;5000198;28;20765;-71
2023/07/19 02:31:11;;;;;;;5.40;3.83;;;;;;;;;;5006721;28;20049;-71
2023/07/19 02:33:37;;;;;;;10.30;3.78;;;;;;;;;;5000735;28;20072;-71
2023/07/19 02:36:02;;;;;;;10.48;3.90;;;;;;;;;;5000668;28;20045;-70
2023/07/19 02:38:28;;;;;;;5.88;3.50;;;;;;;;;;5001774;28;20400;-71
2023/07/19 02:40:59;;;;;;;7.38;4.05;;;;;;;;;;4999700;28;20525;-71
2023/07/19 02:43:24;;;;;;;8.45;3.75;;;;;;;;;;4999486;28;20152;-71
2023/07/19 02:45:52;;;;;;;12.27;3.50;;;;;;;;;;5001604;28;20049;-73
2023/07/19 02:48:18;;;;;;;5.72;3.55;;;;;;;;;;5000105;28;20052;-74
2023/07/19 02:50:45;;;;;;;15.00;4.18;;;;;;;;;;5002187;28;20042;-73
2023/07/19 02:53:11;;;;;;;6.40;4.03;;;;;;;;;;5004883;28;20073;-73
2023/07/19 02:55:36;;;;;;;5.05;3.60;;;;;;;;;;5005949;28;20141;-74
2023/07/19 02:58:02;;;;;;;4.85;3.72;;;;;;;;;;5000485;28;20045;-73
2023/07/19 03:00:27;;;;;;;7.85;3.72;;;;;;;;;;4999982;28;20049;-73
2023/07/19 03:02:53;;;;;;;9.20;3.90;;;;;;;;;;5002571;28;20046;-74
2023/07/19 03:05:20;;;;;;;7.30;4.40;;;;;;;;;;5009180;28;20072;-74
2023/07/19 03:07:45;;;;;;;10.65;3.83;;;;;;;;;;5014244;28;20050;-75
2023/07/19 03:10:11;;;;;;;6.95;3.95;;;;;;;;;;5012717;28;20056;-74
2023/07/19 03:12:36;;;;;;;8.60;4.15;;;;;;;;;;5012504;28;20053;-74
2023/07/19 03:15:02;;;;;;;8.48;4.18;;;;;;;;;;4989011;28;20053;-74
2023/07/19 03:17:28;;;;;;;11.23;3.88;;;;;;;;;;5006461;28;21011;-72
2023/07/19 03:19:54;;;;;;;4.97;3.40;;;;;;;;;;5011561;28;20120;-72
2023/07/19 03:22:20;;;;;;;7.55;4.38;;;;;;;;;;5000825;28;20153;-71
2023/07/19 03:24:45;;;;;;;10.93;4.07;;;;;;;;;;4997788;28;20573;-72
2023/07/19 03:27:10;;;;;;;5.97;4.20;;;;;;;;;;5005373;28;20141;-73
2023/07/19 03:29:36;;;;;;;12.30;4.13;;;;;;;;;;4999216;28;20050;-74
2023/07/19 03:32:02;;;;;;;12.68;4.00;;;;;;;;;;5001306;28;20101;-72
2023/07/19 03:34:28;;;;;;;9.35;4.22;;;;;;;;;;5015216;28;20038;-72
2023/07/19 03:36:53;;;;;;;6.70;3.83;;;;;;;;;;4999422;28;20522;-71
2023/07/19 03:39:19;;;;;;;8.45;3.88;;;;;;;;;;5001893;28;20422;-71
2023/07/19 03:41:44;;;;;;;8.23;4.00;;;;;;;;;;5004364;28;20088;-71
2023/07/19 03:44:10;;;;;;;6.55;3.60;;;;;;;;;;5005514;28;20410;-71
2023/07/19 03:46:35;;;;;;;6.30;3.97;;;;;;;;;;4998414;28;20719;-71
2023/07/19 03:49:01;;;;;;;6.32;3.67;;;;;;;;;;5000256;28;20085;-70
2023/07/19 03:51:26;;;;;;;6.13;3.58;;;;;;;;;;4998626;28;20407;-71
2023/07/19 03:53:53;;;;;;;9.30;4.57;;;;;;;;;;4996012;28;20054;-71
2023/07/19 03:56:21;;;;;;;9.27;3.88;;;;;;;;;;5002236;28;20048;-72
2023/07/19 03:58:49;;;;;;;9.00;3.78;;;;;;;;;;4995810;28;20041;-71
2023/07/19 04:01:15;;;;;;;7.43;4.00;;;;;;;;;;5018614;28;20129;-72
2023/07/19 04:03:41;;;;;;;5.55;3.55;;;;;;;;;;5004588;28;20585;-73
2023/07/19 04:06:07;;;;;;;8.88;3.83;;;;;;;;;;5000690;28;20048;-73
2023/07/19 04:08:34;;;;;;;12.68;3.80;;;;;;;;;;5007214;28;20041;-72
2023/07/19 04:10:59;;;;;;;10.23;3.88;;;;;;;;;;5001848;28;20169;-72
2023/07/19 04:13:28;;;;;;;9.77;3.97;;;;;;;;;;4999042;28;20046;-73
2023/07/19 04:15:54;;;;;;;6.40;3.97;;;;;;;;;;5004120;28;20045;-73
2023/07/19 04:18:21;;;;;;;5.80;3.70;;;;;;;;;;5010974;28;20108;-73
2023/07/19 04:20:54;;;;;;;6.43;4.47;;;;;;;;;;5002708;28;20049;-73
2023/07/19 04:23:20;;;;;;;6.63;3.55;;;;;;;;;;5003774;28;20111;-73
2023/07/19 04:25:45;;;;;;;10.07;3.85;;;;;;;;;;5004561;28;20046;-73
2023/07/19 04:28:11;;;;;;;10.20;4.28;;;;;;;;;;5020661;28;20037;-73
2023/07/19 04:30:36;;;;;;;6.93;3.70;;;;;;;;;;5000561;28;20049;-74
2023/07/19 04:33:04;;;;;;;8.73;3.47;;;;;;;;;;5002031;28;20562;-73
2023/07/19 04:35:30;;;;;;;5.45;3.03;;;;;;;;;;5005805;28;20046;-73
2023/07/19 04:37:56;;;;;;;8.90;3.30;;;;;;;;;;5003488;28;20048;-73
2023/07/19 04:40:21;;;;;;;8.07;3.63;;;;;;;;;;5004825;28;20960;-73
2023/07/19 04:42:49;;;;;;;6.90;3.28;;;;;;;;;;5002132;28;20065;-73
2023/07/19 04:45:15;;;;;;;7.07;3.42;;;;;;;;;;5004952;28;20152;-73
2023/07/19 04:47:42;;;;;;;7.65;3.67;;;;;;;;;;5003119;28;20046;-73
2023/07/19 04:50:09;;;;;;;7.78;3.17;;;;;;;;;;5009585;28;20110;-72
2023/07/19 04:52:36;;;;;;;6.55;3.72;;;;;;;;;;5010154;28;20037;-73
2023/07/19 04:55:02;;;;;;;10.20;3.58;;;;;;;;;;5003687;28;20115;-73
2023/07/19 04:57:29;;;;;;;10.40;3.78;;;;;;;;;;4987262;28;20141;-73
2023/07/19 04:59:55;;;;;;;7.68;3.55;;;;;;;;;;5008150;28;20578;-72
2023/07/19 05:02:20;;;;;;;11.30;3.80;;;;;;;;;;5001804;28;20456;-72
2023/07/19 05:04:46;;;;;;;8.25;4.10;;;;;;;;;;5004019;28;20050;-72
2023/07/19 05:07:11;;;;;;;8.63;3.20;;;;;;;;;;5005426;28;20045;-71
2023/07/19 05:09:37;;;;;;;8.25;3.42;;;;;;;;;;5004334;28;20046;-70
2023/07/19 05:12:03;;;;;;;14.95;3.63;;;;;;;;;;5015946;28;20053;-71
2023/07/19 05:14:29;;;;;;;10.73;3.67;;;;;;;;;;5000046;28;20119;-71
2023/07/19 05:16:55;;;;;;;6.40;3.40;;;;;;;;;;5002364;28;20038;-70
2023/07/19 05:19:20;;;;;;;6.35;3.53;;;;;;;;;;5003255;28;20058;-71
2023/07/19 05:21:46;;;;;;;6.90;3.95;;;;;;;;;;5009215;28;20068;-71
2023/07/19 05:24:12;;;;;;;8.63;4.18;;;;;;;;;;5002840;28;20140;-70
2023/07/19 05:26:39;;;;;;;10.25;4.10;;;;;;;;;;5003372;28;20050;-70
2023/07/19 05:29:05;;;;;;;6.85;3.70;;;;;;;;;;5012642;28;20128;-70
2023/07/19 05:31:31;;;;;;;7.50;3.67;;;;;;;;;;5003395;28;20064;-70
2023/07/19 05:33:57;;;;;;;7.13;2.80;;;;;;;;;;5009987;28;20045;-71
2023/07/19 05:36:22;;;;;;;10.30;3.08;;;;;;;;;;5009153;28;20048;-70
2023/07/19 05:38:47;;;;;;;7.07;2.90;;;;;;;;;;5008158;28;20415;-70
2023/07/19 05:41:13;;;;;;;4.82;2.90;;;;;;;;;;5002879;28;20054;-70
2023/07/19 05:43:38;;;;;;;6.75;2.70;;;;;;;;;;5004016;28;20418;-71
2023/07/19 05:46:08;;;;;;;7.10;2.92;;;;;;;;;;5005591;28;20139;-70
2023/07/19 05:48:35;;;;;;;9.90;2.90;;;;;;;;;;4999258;28;20466;-69
2023/07/19 05:51:02;;;;;;;7.88;3.15;;;;;;;;;;5006672;28;20068;-69
2023/07/19 05:53:27;;;;;;;4.25;3.08;;;;;;;;;;5008496;28;20069;-70
2023/07/19 05:55:53;;;;;;;6.47;3.20;;;;;;;;;;5000455;28;20157;-70
2023/07/19 05:58:19;;;;;;;8.88;2.70;;;;;;;;;;5000915;28;20493;-70
2023/07/19 06:00:46;;;;;;;6.45;2.75;;;;;;;;;;4996482;28;20082;-72
2023/07/19 06:03:11;;;;;;;5.18;2.67;;;;;;;;;;5002308;28;20059;-71
2023/07/19 06:05:38;;;;;;;7.18;2.50;;;;;;;;;;5005269;28;20054;-70
2023/07/19 06:08:04;;;;;;;6.43;2.60;;;;;;;;;;5002245;28;20038;-71
2023/07/19 06:10:29;;;;;;;8.90;2.88;;;;;;;;;;5002923;28;20077;-70
2023/07/19 06:12:55;;;;;;;6.70;2.78;;;;;;;;;;5005535;28;20096;-70
2023/07/19 06:15:20;;;;;;;10.88;2.60;;;;;;;;;;5001998;28;20065;-70
2023/07/19 06:17:46;;;;;;;5.55;2.40;;;;;;;;;;5002310;28;20426;-70
2023/07/19 06:20:12;;;;;;;4.72;2.58;;;;;;;;;;5008606;28;20068;-70
2023/07/19 06:22:38;;;;;;;5.57;2.33;;;;;;;;;;5000928;28;20926;-70
2023/07/19 06:25:04;;;;;;;4.18;2.60;;;;;;;;;;5001640;28;20060;-71
2023/07/19 06:27:29;;;;;;;6.38;2.65;;;;;;;;;;5002222;28;20412;-70
2023/07/19 06:29:55;;;;;;;4.10;2.60;;;;;;;;;;5001874;28;21046;-70
2023/07/19 06:32:20;;;;;;;4.95;2.30;;;;;;;;;;5001761;28;20104;-67
2023/07/19 06:34:46;;;;;;;4.28;2.40;;;;;;;;;;5006100;28;20446;-68
2023/07/19 06:37:11;;;;;;;3.65;2.30;;;;;;;;;;5001650;28;20045;-68
2023/07/19 06:39:36;;;;;;;8.98;2.65;;;;;;;;;;5001721;28;20064;-69
2023/07/19 06:42:02;;;;;;;7.53;3.03;;;;;;;;;;5001398;28;20450;-70
2023/07/19 06:44:28;;;;;;;6.40;2.80;;;;;;;;;;5007620;28;20069;-70
2023/07/19 06:46:53;;;;;;;5.00;3.10;;;;;;;;;;5000680;28;20286;-70
2023/07/19 06:49:19;;;;;;;4.82;2.75;;;;;;;;;;5000372;28;20057;-68
2023/07/19 06:51:45;;;;;;;5.65;3.15;;;;;;;;;;5001015;28;20679;-69
2023/07/19 06:54:10;;;;;;;3.88;2.63;;;;;;;;;;5000946;28;20049;-70
2023/07/19 06:56:36;;;;;;;6.03;2.95;;;;;;;;;;5006304;28;20081;-70
2023/07/19 06:59:01;;;;;;;3.60;2.35;;;;;;;;;;5000688;28;20131;-69
2023/07/19 07:01:27;;;;;;;6.45;2.72;;;;;;;;;;5001332;28;20096;-69
2023/07/19 07:03:52;;;;;;;3.15;2.78;;;;;;;;;;5001352;28;21060;-69
2023/07/19 07:06:18;;;;;;;3.75;2.92;;;;;;;;;;4999601;28;20514;-69
2023/07/19 07:08:44;;;;;;;6.50;3.10;;;;;;;;;;4999129;28;20054;-69
2023/07/19 07:11:09;;;;;;;8.45;2.78;;;;;;;;;;5001423;28;20056;-70
2023/07/19 07:13:35;;;;;;;5.55;3.00;;;;;;;;;;5000845;28;20080;-70
2023/07/19 07:16:01;;;;;;;7.25;2.80;;;;;;;;;;5000951;28;20451;-69
2023/07/19 07:18:27;;;;;;;5.05;2.80;;;;;;;;;;5006019;28;20570;-69
2023/07/19 07:20:52;;;;;;;3.67;2.80;;;;;;;;;;4999429;28;20048;-70
2023/07/19 07:23:18;;;;;;;5.43;3.42;;;;;;;;;;5000566;28;20046;-69
2023/07/19 07:25:44;;;;;;;5.47;2.80;;;;;;;;;;5000208;28;20050;-68
2023/07/19 07:28:09;;;;;;;3.67;2.10;;;;;;;;;;5005785;28;20110;-68
2023/07/19 07:30:37;;;;;;;7.35;2.97;;;;;;;;;;5000810;28;20618;-69
2023/07/19 07:33:03;;;;;;;5.15;2.75;;;;;;;;;;5000409;28;20123;-68
2023/07/19 07:35:29;;;;;;;9.43;2.80;;;;;;;;;;5000351;28;20049;-68
2023/07/19 07:37:55;;;;;;;6.18;2.50;;;;;;;;;;5000959;28;20100;-68
2023/07/19 07:40:20;;;;;;;4.78;2.72;;;;;;;;;;5006203;28;20108;-68
2023/07/19 07:42:46;;;;;;;5.82;2.95;;;;;;;;;;5000419;28;21033;-69
2023/07/19 07:45:11;;;;;;;4.82;2.83;;;;;;;;;;5000190;28;20151;-68
2023/07/19 07:47:37;;;;;;;5.65;2.70;;;;;;;;;;4999463;28;20054;-69
2023/07/19 07:50:04;;;;;;;6.05;3.28;;;;;;;;;;5006036;28;20049;-68
2023/07/19 07:52:30;;;;;;;8.32;3.33;;;;;;;;;;5000436;28;20053;-68
2023/07/19 07:54:55;;;;;;;7.40;3.28;;;;;;;;;;4998589;28;20042;-68
2023/07/19 07:57:21;;;;;;;6.25;3.28;;;;;;;;;;4998889;28;20487;-69
2023/07/19 07:59:47;;;;;;;10.82;3.67;;;;;;;;;;5000119;28;20384;-67
2023/07/19 08:02:12;;;;;;;4.97;3.38;;;;;;;;;;4999542;28;20069;-69
2023/07/19 08:04:37;;;;;;;7.05;3.15;;;;;;;;;;5000661;28;20052;-69
2023/07/19 08:07:03;;;;;;;6.63;3.47;;;;;;;;;;4999490;28;20435;-69
2023/07/19 08:09:29;;;;;;;5.22;3.22;;;;;;;;;;5000663;28;20465;-68
2023/07/19 08:11:54;;;;;;;6.25;3.78;;;;;;;;;;5006255;28;20049;-68
2023/07/19 08:14:20;;;;;;;4.97;3.47;;;;;;;;;;5001879;28;20050;-69
2023/07/19 08:16:49;;;;;;;5.78;3.60;;;;;;;;;;5006576;28;20053;-69
2023/07/19 08:19:14;;;;;;;5.32;3.13;;;;;;;;;;5006361;28;20141;-68
2023/07/19 08:21:40;;;;;;;5.78;3.70;;;;;;;;;;5005441;28;20050;-68
2023/07/19 08:24:05;;;;;;;9.27;3.70;;;;;;;;;;5005823;28;20084;-68
2023/07/19 08:26:31;;;;;;;5.60;3.45;;;;;;;;;;5006832;28;20399;-69
2023/07/19 08:28:57;;;;;;;6.50;3.60;;;;;;;;;;5005769;28;20056;-69
2023/07/19 08:31:23;;;;;;;4.63;3.42;;;;;;;;;;5006547;28;20069;-69
2023/07/19 08:33:48;;;;;;;6.47;3.63;;;;;;;;;;5010814;28;20570;-68
2023/07/19 08:36:14;;;;;;;6.85;3.60;;;;;;;;;;5007553;28;20052;-69
2023/07/19 08:38:40;;;;;;;5.57;3.85;;;;;;;;;;5006606;28;20042;-68
2023/07/19 08:41:09;;;;;;;7.60;3.70;;;;;;;;;;5005643;28;20050;-69
2023/07/19 08:43:37;;;;;;;7.55;4.20;;;;;;;;;;5006818;28;20057;-68
2023/07/19 08:46:03;;;;;;;5.10;3.55;;;;;;;;;;5011540;28;20069;-69
2023/07/19 08:48:31;;;;;;;5.07;3.50;;;;;;;;;;5004940;28;20067;-69
2023/07/19 08:51:03;;;;;;;7.15;3.72;;;;;;;;;;5005906;28;20048;-69
2023/07/19 08:53:29;;;;;;;5.88;3.80;;;;;;;;;;5006207;28;20045;-68
2023/07/19 08:55:56;;;;;;;5.38;4.10;;;;;;;;;;5004727;28;20050;-68
2023/07/19 08:58:21;;;;;;;6.47;4.03;;;;;;;;;;5006104;28;20045;-67
2023/07/19 09:00:48;;;;;;;7.10;4.13;;;;;;;;;;5008981;28;20096;-68
2023/07/19 09:03:15;;;;;;;7.80;4.00;;;;;;;;;;5006914;28;20046;-67
2023/07/19 09:05:41;;;;;;;4.90;3.38;;;;;;;;;;5006432;28;20525;-68
2023/07/19 09:08:10;;;;;;;7.40;4.00;;;;;;;;;;5010742;28;20046;-68
2023/07/19 09:10:36;;;;;;;7.05;4.55;;;;;;;;;;5005580;28;20053;-68
2023/07/19 09:13:05;;;;;;;5.20;4.13;;;;;;;;;;5006070;28;20470;-68
2023/07/19 09:15:37;;;;;;;7.55;4.47;;;;;;;;;;5004581;28;20543;-69
2023/07/19 09:18:04;;;;;;;10.25;4.20;;;;;;;;;;5012025;28;20597;-68
2023/07/19 09:20:30;;;;;;;9.48;4.18;;;;;;;;;;5006001;28;20470;-68
2023/07/19 09:22:57;;;;;;;7.20;3.90;;;;;;;;;;5006048;28;20509;-69
2023/07/19 09:25:23;;;;;;;6.32;4.25;;;;;;;;;;5005103;28;20064;-69
2023/07/19 09:27:48;;;;;;;4.38;2.83;;;;;;;;;;5005368;28;20049;-68
2023/07/19 09:30:14;;;;;;;5.97;2.70;;;;;;;;;;5007162;28;20052;-69
2023/07/19 09:32:41;;;;;;;6.50;2.90;;;;;;;;;;5002630;28;20082;-68
2023/07/19 09:35:07;;;;;;;4.55;2.67;;;;;;;;;;5002705;28;20061;-68
2023/07/19 09:37:33;;;;;;;6.03;2.50;;;;;;;;;;5002919;28;20092;-69
2023/07/19 09:40:01;;;;;;;4.80;2.72;;;;;;;;;;5008603;28;20049;-69
2023/07/19 09:42:28;;;;;;;3.05;2.30;;;;;;;;;;5002430;28;21168;-68
2023/07/19 09:44:54;;;;;;;4.25;2.60;;;;;;;;;;5008068;28;20045;-69
2023/07/19 09:47:22;;;;;;;4.22;2.83;;;;;;;;;;5009308;28;20046;-69
2023/07/19 09:49:48;;;;;;;2.80;2.50;;;;;;;;;;5007635;28;20072;-68
2023/07/19 09:52:17;;;;;;;6.28;2.45;;;;;;;;;;5011482;28;20053;-69
2023/07/19 09:54:44;;;;;;;6.55;3.50;;;;;;;;;;5002510;28;20077;-69
2023/07/19 09:57:10;;;;;;;2.63;2.15;;;;;;;;;;5001239;28;20794;-68
2023/07/19 09:59:38;;;;;;;2.53;2.33;;;;;;;;;;5002803;28;20047;-69
2023/07/19 10:02:04;;;;;;;4.25;2.88;;;;;;;;;;5001367;28;20045;-68
2023/07/19 10:04:37;;;;;;;3.47;2.78;;;;;;;;;;5002572;28;20033;-68
2023/07/19 10:07:03;;;;;;;8.02;2.90;;;;;;;;;;5001512;28;20128;-69
2023/07/19 10:09:30;;;;;;;5.00;2.92;;;;;;;;;;5002246;28;20061;-69
2023/07/19 10:12:05;;;;;;;3.85;2.47;;;;;;;;;;5002058;28;20056;-69
2023/07/19 10:14:32;;;;;;;5.15;2.47;;;;;;;;;;5013480;28;20499;-69
2023/07/19 10:16:59;;;;;;;3.85;2.38;;;;;;;;;;5004002;28;20041;-70
2023/07/19 10:19:26;;;;;;;5.20;2.45;;;;;;;;;;5002082;28;20046;-69
2023/07/19 10:22:05;;;;;;;3.03;2.35;;;;;;;;;;5001838;28;20058;-68
2023/07/19 10:24:32;;;;;;;3.50;2.45;;;;;;;;;;5000647;28;20049;-69
2023/07/19 10:27:21;;;;;;;3.95;2.58;;;;;;;;;;5005820;28;20059;-69
2023/07/19 10:29:49;;;;;;;3.25;2.35;;;;;;;;;;5001559;28;20092;-70
2023/07/19 10:32:14;;;;;;;3.78;2.20;;;;;;;;;;5001890;28;20049;-69
2023/07/19 10:34:43;;;;;;;3.10;2.80;;;;;;;;;;4999038;28;20076;-69
2023/07/19 10:37:08;;;;;;;5.53;2.50;;;;;;;;;;5001150;28;20048;-70
2023/07/19 10:39:34;;;;;;;3.63;2.40;;;;;;;;;;5001177;28;20402;-69
2023/07/19 10:41:59;;;;;;;3.17;2.55;;;;;;;;;;5001059;28;20495;-70
2023/07/19 10:44:26;;;;;;;4.38;2.10;;;;;;;;;;5000517;28;20065;-70
2023/07/19 10:46:54;;;;;;;5.93;2.67;;;;;;;;;;5005188;28;20066;-70
2023/07/19 10:49:22;;;;;;;4.38;2.30;;;;;;;;;;5000482;28;20069;-70
2023/07/19 10:51:55;;;;;;;3.05;2.42;;;;;;;;;;5002138;28;20411;-70
2023/07/19 10:54:21;;;;;;;5.57;2.72;;;;;;;;;;5002179;28;20430;-70
2023/07/19 10:56:48;;;;;;;3.60;2.30;;;;;;;;;;5004759;28;21044;-71
2023/07/19 10:59:14;;;;;;;3.70;2.80;;;;;;;;;;5002616;28;20050;-70
2023/07/19 11:01:40;;;;;;;3.45;2.33;;;;;;;;;;5001553;28;20048;-70
2023/07/19 11:04:07;;;;;;;5.15;2.85;;;;;;;;;;5001355;28;20408;-70
2023/07/19 11:06:38;;;;;;;4.82;2.20;;;;;;;;;;5001002;28;20054;-69
2023/07/19 11:09:07;;;;;;;8.05;2.78;;;;;;;;;;5006057;28;20053;-70
2023/07/19 11:11:38;;;;;;;3.42;2.60;;;;;;;;;;5001009;28;20838;-70
2023/07/19 11:14:04;;;;;;;5.40;2.72;;;;;;;;;;5000877;28;20077;-69
2023/07/19 11:16:30;;;;;;;5.07;2.33;;;;;;;;;;5000161;28;20129;-70
2023/07/19 11:18:56;;;;;;;3.53;2.33;;;;;;;;;;5005462;28;20452;-70
2023/07/19 11:21:26;;;;;;;4.40;2.58;;;;;;;;;;5001414;28;20570;-70
2023/07/19 11:23:52;;;;;;;5.32;2.50;;;;;;;;;;4999827;28;20057;-70
2023/07/19 11:26:18;;;;;;;2.72;2.35;;;;;;;;;;4999590;28;20049;-70
2023/07/19 11:28:52;;;;;;;3.00;2.20;;;;;;;;;;4998740;28;20061;-70
2023/07/19 11:31:34;;;;;;;3.45;2.50;;;;;;;;;;5006835;28;20150;-71
2023/07/19 11:34:10;;;;;;;4.28;2.90;;;;;;;;;;5001171;28;20053;-70
2023/07/19 11:36:45;;;;;;;2.63;2.25;;;;;;;;;;5000820;28;20104;-69
2023/07/19 11:39:15;;;;;;;3.88;2.47;;;;;;;;;;5000795;28;20054;-71
2023/07/19 11:41:45;;;;;;;5.32;2.63;;;;;;;;;;5006204;28;20506;-70
2023/07/19 11:44:19;;;;;;;2.57;2.37;;;;;;;;;;5000876;28;20511;-70
2023/07/19 11:46:45;;;;;;;3.63;2.63;;;;;;;;;;5005912;28;20092;-71
2023/07/19 11:49:10;;;;;;;2.83;2.45;;;;;;;;;;5007089;28;20060;-70
2023/07/19 11:51:37;;;;;;;4.78;2.45;;;;;;;;;;5003315;28;20054;-72
2023/07/19 11:54:03;;;;;;;5.40;2.50;;;;;;;;;;5007701;28;20050;-72
2023/07/19 11:56:29;;;;;;;2.75;2.03;;;;;;;;;;5022194;28;20041;-70
2023/07/19 11:58:56;;;;;;;4.05;2.33;;;;;;;;;;5008936;28;20900;-71
2023/07/19 12:01:21;;;;;;;2.60;2.40;;;;;;;;;;5006792;28;20102;-72
2023/07/19 12:03:50;;;;;;;3.50;2.30;;;;;;;;;;5003769;28;20169;-71
2023/07/19 12:06:16;;;;;;;2.60;2.38;;;;;;;;;;5004615;28;20100;-70
2023/07/19 12:08:41;;;;;;;3.75;2.42;;;;;;;;;;5018231;28;20046;-71
2023/07/19 12:11:08;;;;;;;7.00;2.50;;;;;;;;;;5001792;28;20050;-72
2023/07/19 12:13:36;;;;;;;4.97;2.60;;;;;;;;;;5003982;28;20057;-73
2023/07/19 12:16:03;;;;;;;2.92;2.45;;;;;;;;;;5008532;28;20063;-72
2023/07/19 12:18:29;;;;;;;2.92;2.42;;;;;;;;;;5007586;28;20071;-72
2023/07/19 12:20:55;;;;;;;2.95;2.30;;;;;;;;;;5006587;28;20425;-73
2023/07/19 12:23:21;;;;;;;11.73;3.00;;;;;;;;;;5008090;28;20413;-70
2023/07/19 12:25:47;;;;;;;4.40;2.30;;;;;;;;;;5004787;28;20050;-71
2023/07/19 12:28:14;;;;;;;3.35;2.53;;;;;;;;;;4998672;28;20046;-71
2023/07/19 12:30:41;;;;;;;3.13;2.28;;;;;;;;;;5005992;28;20595;-74
2023/07/19 12:33:06;;;;;;;5.80;2.47;;;;;;;;;;5004957;28;20471;-71
2023/07/19 12:35:32;;;;;;;3.25;2.08;;;;;;;;;;5004275;28;20046;-70
2023/07/19 12:37:58;;;;;;;6.03;2.50;;;;;;;;;;5007534;28;20119;-70
2023/07/19 12:40:23;;;;;;;3.55;2.20;;;;;;;;;;5000245;28;20156;-71
2023/07/19 12:42:49;;;;;;;3.10;2.08;;;;;;;;;;5002214;28;20045;-71
2023/07/19 12:45:15;;;;;;;4.75;2.40;;;;;;;;;;4999516;28;20105;-71
2023/07/19 12:47:41;;;;;;;3.20;2.05;;;;;;;;;;5004192;28;20411;-71
2023/07/19 12:50:07;;;;;;;3.35;2.30;;;;;;;;;;4998987;28;20054;-70
2023/07/19 12:52:34;;;;;;;3.05;2.40;;;;;;;;;;4980868;28;20145;-70
2023/07/19 12:55:00;;;;;;;3.80;2.15;;;;;;;;;;5003222;28;20046;-70
2023/07/19 12:57:25;;;;;;;2.58;2.38;;;;;;;;;;4999123;28;20042;-69
2023/07/19 12:59:50;;;;;;;2.78;2.05;;;;;;;;;;5011608;28;20052;-69
2023/07/19 13:02:16;;;;;;;4.95;2.40;;;;;;;;;;4999678;28;20053;-70
2023/07/19 13:04:41;;;;;;;4.70;2.38;;;;;;;;;;5001315;28;20049;-69
2023/07/19 13:07:08;;;;;;;8.07;2.88;;;;;;;;;;5002636;28;20061;-70
2023/07/19 13:09:34;;;;;;;5.15;2.40;;;;;;;;;;5005963;28;20054;-72
2023/07/19 13:11:59;;;;;;;7.32;2.20;;;;;;;;;;5003297;28;20060;-71
2023/07/19 13:14:25;;;;;;;2.35;2.13;;;;;;;;;;5002964;28;20107;-70
2023/07/19 13:16:52;;;;;;;3.35;2.60;;;;;;;;;;5002190;28;20407;-71
2023/07/19 13:19:18;;;;;;;4.05;2.25;;;;;;;;;;5006788;28;20053;-70
2023/07/19 13:21:43;;;;;;;2.97;2.33;;;;;;;;;;5016505;28;20060;-71
2023/07/19 13:24:09;;;;;;;4.65;2.45;;;;;;;;;;5003023;28;20141;-69
2023/07/19 13:26:36;;;;;;;3.05;2.33;;;;;;;;;;5002059;28;20042;-69
2023/07/19 13:29:01;;;;;;;3.25;2.40;;;;;;;;;;5002539;28;20080;-71
2023/07/19 13:31:27;;;;;;;4.35;2.30;;;;;;;;;;5007649;28;20077;-71
2023/07/19 13:33:59;;;;;;;3.28;2.20;;;;;;;;;;5002062;28;20503;-68
2023/07/19 13:36:31;;;;;;;6.15;2.40;;;;;;;;;;5002195;28;20037;-71
2023/07/19 13:38:57;;;;;;;3.85;2.53;;;;;;;;;;5005963;28;20148;-70
2023/07/19 13:41:23;;;;;;;4.75;2.42;;;;;;;;;;5001385;28;20412;-69
2023/07/19 13:43:49;;;;;;;5.63;2.33;;;;;;;;;;5009850;28;20054;-69
2023/07/19 13:46:15;;;;;;;3.03;2.33;;;;;;;;;;5002139;28;20376;-70
2023/07/19 13:48:40;;;;;;;7.88;2.40;;;;;;;;;;5002471;28;20103;-70
2023/07/19 13:51:06;;;;;;;3.28;2.47;;;;;;;;;;5002011;28;21030;-70
2023/07/19 13:53:31;;;;;;;5.70;2.28;;;;;;;;;;5007697;28;20042;-70
2023/07/19 13:55:56;;;;;;;4.47;2.38;;;;;;;;;;5002332;28;20052;-70
2023/07/19 13:58:22;;;;;;;2.78;2.20;;;;;;;;;;5000099;28;20046;-69
2023/07/19 14:00:47;;;;;;;2.65;2.13;;;;;;;;;;5001602;28;20056;-71
2023/07/19 14:03:14;;;;;;;3.42;2.50;;;;;;;;;;5002422;28;20108;-71
2023/07/19 14:05:40;;;;;;;3.30;2.22;;;;;;;;;;5001336;28;20052;-71
2023/07/19 14:08:05;;;;;;;2.33;1.77;;;;;;;;;;5006760;28;20067;-71
2023/07/19 14:10:31;;;;;;;6.45;2.42;;;;;;;;;;5007555;28;20041;-70
2023/07/19 14:12:57;;;;;;;3.30;2.30;;;;;;;;;;5007806;28;20045;-71
2023/07/19 14:15:22;;;;;;;5.10;2.47;;;;;;;;;;5006566;28;20041;-72
2023/07/19 14:17:48;;;;;;;3.65;2.35;;;;;;;;;;5008761;28;20141;-72
2023/07/19 14:20:14;;;;;;;3.13;1.80;;;;;;;;;;5002997;28;20103;-70
2023/07/19 14:22:42;;;;;;;3.15;2.15;;;;;;;;;;5012392;28;20091;-70
2023/07/19 14:25:08;;;;;;;2.55;2.35;;;;;;;;;;5003782;28;20089;-70
2023/07/19 14:27:38;;;;;;;2.90;2.30;;;;;;;;;;5008418;28;20132;-70
2023/07/19 14:30:07;;;;;;;3.47;2.40;;;;;;;;;;5008717;28;20052;-72
2023/07/19 14:32:34;;;;;;;2.83;2.15;;;;;;;;;;5006717;28;20494;-69
2023/07/19 14:35:00;;;;;;;6.22;2.35;;;;;;;;;;5007083;28;20103;-70
2023/07/19 14:37:26;;;;;;;3.10;2.38;;;;;;;;;;5007621;28;20045;-70
2023/07/19 14:39:51;;;;;;;2.97;2.03;;;;;;;;;;5001089;28;20071;-71